Time;durP1;ratioP1;P1;durP2;ratioP2;P2;SDS_P1;SDS_P2;PMS_P1;PMS_P2;Temp;Humidity;BMP_temperature;BMP_pressure;BME280_temperature;BME280_humidity;BME280_pressure;Samples;Min_cycle;Max_cycle;Signal;HPM_P1;HPM_P2
2023/02/27 00:01:17;;;;;;;6.13;3.00;;;2.00;99.90;;;1.82;60.67;100765.56;4981399;28;20259;-74
2023/02/27 00:03:47;;;;;;;5.90;2.50;;;2.00;99.90;;;1.79;60.80;100766.31;4983827;28;20216;-73
2023/02/27 00:06:18;;;;;;;7.27;2.97;;;2.00;99.90;;;1.78;61.34;100772.22;4982090;28;20228;-74
2023/02/27 00:08:48;;;;;;;6.23;2.53;;;2.00;99.90;;;1.71;62.16;100766.88;4986661;28;20208;-74
2023/02/27 00:11:17;;;;;;;5.07;2.80;;;1.90;99.90;;;1.65;62.12;100767.50;4985627;28;20572;-75
2023/02/27 00:13:46;;;;;;;4.30;2.53;;;2.00;99.90;;;1.65;62.66;100772.56;4986963;28;20258;-72
2023/02/27 00:16:15;;;;;;;5.20;2.90;;;1.80;99.90;;;1.61;64.08;100773.28;4984764;28;20220;-73
2023/02/27 00:18:44;;;;;;;7.43;3.30;;;1.80;99.90;;;1.57;64.10;100781.59;4982814;28;20212;-74
2023/02/27 00:21:13;;;;;;;7.33;3.00;;;1.80;99.90;;;1.53;64.52;100784.84;4985180;28;20212;-72
2023/02/27 00:23:42;;;;;;;5.57;2.90;;;1.70;99.90;;;1.50;64.42;100792.34;4985144;28;20757;-74
2023/02/27 00:26:12;;;;;;;5.07;3.23;;;1.70;99.90;;;1.48;65.02;100788.91;4987645;28;20239;-75
2023/02/27 00:28:44;;;;;;;5.37;3.23;;;1.80;99.90;;;1.43;65.84;100781.94;4986614;28;20231;-73
2023/02/27 00:31:13;;;;;;;8.30;3.40;;;1.70;99.90;;;1.42;65.19;100790.38;4984216;28;20214;-76
2023/02/27 00:33:42;;;;;;;6.83;3.20;;;1.70;99.90;;;1.44;65.47;100787.91;4981580;28;20212;-80
2023/02/27 00:36:11;;;;;;;7.10;3.37;;;1.70;99.90;;;1.40;65.88;100792.00;4981965;28;20228;-80
2023/02/27 00:38:39;;;;;;;5.43;3.50;;;1.60;99.90;;;1.37;66.47;100786.81;4998461;28;20201;-82
2023/02/27 00:41:08;;;;;;;7.47;2.83;;;1.60;99.90;;;1.33;66.09;100789.19;4982872;28;20239;-79
2023/02/27 00:43:38;;;;;;;6.23;3.30;;;1.60;99.90;;;1.34;66.79;100796.84;4983796;28;20200;-79
2023/02/27 00:46:08;;;;;;;6.53;3.33;;;1.60;99.90;;;1.34;66.62;100794.31;4983468;28;20201;-80
2023/02/27 00:48:39;;;;;;;5.73;3.23;;;1.60;99.90;;;1.33;66.83;100792.59;4983633;28;20228;-80
2023/02/27 00:51:08;;;;;;;7.13;3.30;;;1.60;99.90;;;1.29;67.66;100798.38;4980886;28;20212;-81
2023/02/27 00:53:37;;;;;;;4.90;3.07;;;1.50;99.90;;;1.28;67.71;100794.06;4983500;28;20205;-80
2023/02/27 00:56:08;;;;;;;6.27;3.60;;;1.50;99.90;;;1.30;67.96;100799.22;4983784;28;20208;-81
2023/02/27 00:58:38;;;;;;;5.80;3.10;;;1.50;99.90;;;1.31;67.60;100809.44;4983983;28;20231;-79
2023/02/27 01:01:06;;;;;;;5.07;2.83;;;1.50;99.90;;;1.30;67.79;100806.84;4984522;28;20209;-79
2023/02/27 01:03:35;;;;;;;6.10;3.37;;;1.50;99.90;;;1.30;68.38;100810.25;4979519;28;20204;-72
2023/02/27 01:06:05;;;;;;;5.10;3.40;;;1.50;99.90;;;1.31;68.49;100817.03;4980240;28;20622;-72
2023/02/27 01:08:34;;;;;;;7.10;3.47;;;1.50;99.90;;;1.32;68.46;100807.75;4980657;28;20213;-71
2023/02/27 01:11:02;;;;;;;4.10;2.93;;;1.50;99.90;;;1.30;68.88;100802.63;4982114;28;20200;-73
2023/02/27 01:13:31;;;;;;;4.10;2.93;;;1.50;99.90;;;1.31;68.72;100801.81;4977408;28;20232;-72
2023/02/27 01:16:01;;;;;;;5.20;3.10;;;1.50;99.90;;;1.32;69.11;100801.00;4984803;28;20581;-72
2023/02/27 01:18:30;;;;;;;7.63;3.50;;;1.50;99.90;;;1.36;68.87;100809.59;4988784;28;20212;-73
2023/02/27 01:20:59;;;;;;;5.23;3.13;;;1.50;99.90;;;1.33;68.58;100810.38;4978795;28;20223;-73
2023/02/27 01:23:28;;;;;;;6.97;3.07;;;1.50;99.90;;;1.31;68.74;100811.09;4977346;28;20737;-72
2023/02/27 01:25:57;;;;;;;7.30;3.23;;;1.50;99.90;;;1.30;69.32;100822.94;4980196;28;20693;-72
2023/02/27 01:28:26;;;;;;;4.23;2.70;;;1.50;99.90;;;1.26;69.30;100807.53;4989554;28;20239;-72
2023/02/27 01:30:55;;;;;;;3.40;2.53;;;1.50;99.90;;;1.22;69.51;100806.56;4977917;28;20296;-73
2023/02/27 01:33:25;;;;;;;4.17;2.90;;;1.50;99.90;;;1.24;69.83;100809.13;4968592;28;20285;-73
2023/02/27 01:35:54;;;;;;;5.50;3.20;;;1.50;99.90;;;1.25;69.83;100814.25;4977176;28;20212;-74
2023/02/27 01:38:22;;;;;;;5.47;3.73;;;1.50;99.90;;;1.28;69.88;100810.97;4984086;28;20676;-70
2023/02/27 01:40:51;;;;;;;5.50;3.20;;;1.50;99.90;;;1.30;70.14;100810.25;4978719;28;20307;-72
2023/02/27 01:43:22;;;;;;;4.40;3.00;;;1.50;99.90;;;1.32;69.48;100818.75;4976531;28;20221;-74
2023/02/27 01:45:51;;;;;;;6.90;3.00;;;1.50;99.90;;;1.36;69.41;100810.50;4973364;28;20586;-72
2023/02/27 01:48:27;;;;;;;5.63;2.90;;;1.50;99.90;;;1.37;69.44;100816.44;4975794;28;20232;-71
2023/02/27 01:51:01;;;;;;;5.33;2.87;;;1.50;99.90;;;1.37;69.47;100814.75;4975254;28;20208;-72
2023/02/27 01:53:32;;;;;;;3.67;2.87;;;1.50;99.90;;;1.36;69.35;100817.22;4975979;28;20216;-72
2023/02/27 01:56:10;;;;;;;3.83;2.70;;;1.50;99.90;;;1.36;69.78;100824.81;4975578;28;20236;-72
2023/02/27 01:58:39;;;;;;;4.70;3.00;;;1.60;99.90;;;1.36;69.65;100819.75;4976859;28;20232;-73
2023/02/27 02:01:08;;;;;;;5.30;2.77;;;1.50;99.90;;;1.34;69.91;100822.25;4976000;28;20235;-73
2023/02/27 02:03:45;;;;;;;4.23;2.47;;;1.50;99.90;;;1.30;70.13;100820.41;4975113;28;20208;-74
2023/02/27 02:06:13;;;;;;;3.40;2.37;;;1.50;99.90;;;1.30;70.48;100830.56;4978611;28;20591;-73
2023/02/27 02:08:46;;;;;;;4.87;3.03;;;1.50;99.90;;;1.30;70.17;100830.56;4979939;28;20224;-74
2023/02/27 02:11:18;;;;;;;5.33;2.40;;;1.50;99.90;;;1.28;70.57;100834.69;4978143;28;20209;-74
2023/02/27 02:13:49;;;;;;;4.40;2.47;;;1.50;99.90;;;1.26;70.87;100832.91;4983890;28;20279;-73
2023/02/27 02:16:46;;;;;;;2.73;2.50;;;1.40;99.90;;;1.26;70.57;100836.31;4989205;28;20303;-74
2023/02/27 02:20:12;;;;;;;3.20;2.40;;;1.50;99.90;;;1.25;70.55;100837.09;4996263;28;20240;-73
2023/02/27 02:23:22;;;;;;;5.43;2.50;;;1.50;99.90;;;1.23;70.59;100835.34;4990345;28;20264;-74
2023/02/27 02:26:39;;;;;;;3.80;2.20;;;1.40;99.90;;;1.25;70.90;100832.03;4997312;28;20244;-74
2023/02/27 02:30:02;;;;;;;3.57;2.23;;;1.40;99.90;;;1.28;70.71;100839.78;4974034;28;20238;-74
2023/02/27 02:33:31;;;;;;;3.30;2.40;;;1.40;99.90;;;1.27;70.63;100842.25;4972800;28;20243;-73
2023/02/27 02:36:56;;;;;;;4.57;2.87;;;1.40;99.90;;;1.28;71.21;100847.38;4896830;29;20214;-73
2023/02/27 02:40:01;;;;;;;3.67;2.60;;;1.50;99.90;;;1.30;70.68;100855.94;4897361;28;20255;-72
2023/02/27 02:42:37;;;;;;;3.73;2.97;;;1.50;99.90;;;1.33;71.14;100856.06;4976687;28;20205;-73
2023/02/27 02:45:17;;;;;;;3.97;2.83;;;1.50;99.90;;;1.32;71.34;100854.31;4982008;28;20290;-73
2023/02/27 02:48:04;;;;;;;7.13;3.37;;;1.50;99.90;;;1.33;71.00;100855.19;4978883;28;20255;-73
2023/02/27 02:50:41;;;;;;;3.70;2.67;;;1.50;99.90;;;1.33;70.91;100857.75;4978944;28;20236;-73
2023/02/27 02:53:18;;;;;;;3.20;2.90;;;1.50;99.90;;;1.33;71.66;100861.13;4977658;28;20208;-74
2023/02/27 02:55:53;;;;;;;3.60;3.07;;;1.50;99.90;;;1.35;71.93;100861.19;4973688;28;20234;-73
2023/02/27 02:58:29;;;;;;;4.80;3.60;;;1.50;99.90;;;1.35;71.37;100864.59;4979431;28;20219;-73
2023/02/27 03:01:08;;;;;;;3.57;3.07;;;1.50;99.90;;;1.33;72.08;100871.28;4978060;28;20205;-74
2023/02/27 03:03:43;;;;;;;3.87;3.27;;;1.50;99.90;;;1.31;72.15;100877.97;4979536;28;20568;-74
2023/02/27 03:06:17;;;;;;;6.23;3.57;;;1.50;99.90;;;1.31;72.03;100880.50;4979582;28;20246;-73
2023/02/27 03:08:53;;;;;;;6.07;4.23;;;1.50;99.90;;;1.30;72.13;100877.94;4959385;28;20235;-73
2023/02/27 03:11:27;;;;;;;6.03;3.83;;;1.50;99.90;;;1.32;71.97;100884.78;4968192;28;20610;-72
2023/02/27 03:14:03;;;;;;;5.03;4.17;;;1.50;99.90;;;1.32;72.11;100887.31;4979263;28;20219;-73
2023/02/27 03:16:39;;;;;;;7.43;4.33;;;1.50;99.90;;;1.32;72.54;100899.16;4981034;28;20236;-74
2023/02/27 03:19:14;;;;;;;5.73;4.30;;;1.50;99.90;;;1.31;72.03;100899.97;4977153;28;20226;-73
2023/02/27 03:21:48;;;;;;;5.50;4.23;;;1.50;99.90;;;1.33;72.57;100898.38;4966920;28;20204;-73
2023/02/27 03:24:24;;;;;;;5.80;4.10;;;1.50;99.90;;;1.33;72.38;100904.31;4978314;28;20211;-73
2023/02/27 03:27:01;;;;;;;5.30;3.60;;;1.50;99.90;;;1.30;72.22;100900.78;4976786;28;20211;-72
2023/02/27 03:29:39;;;;;;;5.13;3.40;;;1.50;99.90;;;1.29;72.03;100904.09;4975954;28;20681;-74
2023/02/27 03:32:14;;;;;;;5.07;3.80;;;1.40;99.90;;;1.29;72.25;100914.25;4975743;28;20332;-73
2023/02/27 03:34:45;;;;;;;5.53;4.23;;;1.40;99.90;;;1.24;72.29;100911.53;4977965;28;20208;-72
2023/02/27 03:37:30;;;;;;;5.10;4.00;;;1.40;99.90;;;1.22;72.16;100917.38;4984669;28;20196;-73
2023/02/27 03:40:10;;;;;;;6.60;3.87;;;1.40;99.90;;;1.19;72.49;100907.97;4977004;28;20219;-74
2023/02/27 03:42:47;;;;;;;5.57;4.10;;;1.40;99.90;;;1.17;72.18;100919.72;4975373;28;20208;-72
2023/02/27 03:45:28;;;;;;;4.37;3.70;;;1.30;99.90;;;1.14;72.42;100920.47;4974406;28;20619;-71
2023/02/27 03:47:57;;;;;;;5.43;3.90;;;1.30;99.90;;;1.15;72.30;100913.72;4966243;28;20231;-71
2023/02/27 03:50:25;;;;;;;5.40;3.53;;;1.30;99.90;;;1.14;72.66;100920.47;4973811;28;20476;-71
2023/02/27 03:52:55;;;;;;;7.27;3.87;;;1.30;99.90;;;1.17;72.55;100924.78;4984386;28;20267;-71
2023/02/27 03:55:29;;;;;;;4.67;3.87;;;1.30;99.90;;;1.16;72.15;100930.69;4975801;28;20205;-71
2023/02/27 03:57:59;;;;;;;6.57;3.70;;;1.30;99.90;;;1.18;72.24;100932.47;4970454;28;20223;-73
2023/02/27 04:00:29;;;;;;;5.03;3.70;;;1.30;99.90;;;1.21;72.67;100931.72;4970854;28;20264;-71
2023/02/27 04:03:01;;;;;;;6.53;3.63;;;1.30;99.90;;;1.21;72.43;100931.72;4980665;28;20209;-69
2023/02/27 04:05:30;;;;;;;4.87;3.30;;;1.30;99.90;;;1.24;72.16;100926.75;4972578;28;20236;-72
2023/02/27 04:08:30;;;;;;;4.17;3.20;;;1.30;99.90;;;1.25;71.61;100941.19;4972489;28;20224;-71
2023/02/27 04:11:44;;;;;;;3.87;3.27;;;1.40;99.90;;;1.28;71.80;100938.78;4973560;28;20197;-72
2023/02/27 04:14:37;;;;;;;3.73;3.33;;;1.40;99.90;;;1.32;71.63;100939.75;4966625;28;20212;-71
2023/02/27 04:17:19;;;;;;;3.90;3.13;;;1.40;99.90;;;1.31;71.52;100938.91;4973718;28;20677;-71
2023/02/27 04:20:13;;;;;;;4.70;3.50;;;1.40;99.90;;;1.31;71.88;100943.97;4970980;28;20224;-71
2023/02/27 04:22:49;;;;;;;4.40;3.30;;;1.40;99.90;;;1.28;71.50;100954.00;4972403;28;20243;-72
2023/02/27 04:25:40;;;;;;;3.87;2.97;;;1.40;99.90;;;1.25;71.77;100947.94;4975155;28;20232;-70
2023/02/27 04:28:17;;;;;;;4.13;2.93;;;1.40;99.90;;;1.19;71.85;100949.44;4959707;28;20236;-71
2023/02/27 04:31:02;;;;;;;5.53;3.43;;;1.40;99.90;;;1.19;70.86;100949.44;4968079;28;20212;-72
2023/02/27 04:33:43;;;;;;;6.97;3.47;;;1.30;99.90;;;1.13;71.20;100953.38;4972790;28;20221;-69
2023/02/27 04:36:20;;;;;;;6.27;2.77;;;1.30;99.90;;;1.08;70.35;100957.41;4974845;28;20662;-71
2023/02/27 04:39:01;;;;;;;4.43;2.80;;;1.20;99.90;;;1.02;70.31;100962.22;4974469;28;20247;-72
2023/02/27 04:41:35;;;;;;;3.30;2.37;;;1.20;99.90;;;1.02;69.98;100969.84;4974500;28;20236;-74
2023/02/27 04:44:09;;;;;;;6.00;2.63;;;1.20;99.90;;;1.01;70.05;100965.59;4967802;28;20197;-73
2023/02/27 04:46:42;;;;;;;4.33;2.50;;;1.10;99.90;;;0.99;69.45;100969.72;4981515;28;20618;-71
2023/02/27 04:49:19;;;;;;;3.40;2.67;;;1.20;99.90;;;1.01;68.73;100973.19;4977677;28;20590;-72
2023/02/27 04:51:53;;;;;;;4.13;2.00;;;1.10;99.90;;;0.99;68.44;100970.56;4977715;28;20208;-69
2023/02/27 04:54:29;;;;;;;4.37;3.03;;;1.10;99.90;;;1.00;68.25;100971.47;4978329;28;20192;-80
2023/02/27 04:57:09;;;;;;;3.33;2.30;;;1.10;99.90;;;1.00;67.48;100971.47;4982992;28;20270;-79
2023/02/27 04:59:44;;;;;;;3.40;2.07;;;1.20;99.90;;;1.01;67.20;100973.19;4979925;28;20219;-79
2023/02/27 05:02:23;;;;;;;3.43;2.40;;;1.10;99.90;;;0.98;67.30;100978.13;4978789;28;20228;-78
2023/02/27 05:04:59;;;;;;;4.20;2.40;;;1.10;99.90;;;1.01;67.17;100985.88;4969341;28;20207;-81
2023/02/27 05:07:40;;;;;;;3.17;1.80;;;1.10;99.90;;;1.01;66.68;100988.41;4991732;28;20208;-78
2023/02/27 05:10:16;;;;;;;4.07;2.60;;;1.10;99.90;;;1.02;67.01;100991.00;4979377;28;20228;-78
2023/02/27 05:12:49;;;;;;;2.87;2.43;;;1.20;99.90;;;1.05;67.12;100990.28;4978284;28;20286;-81
2023/02/27 05:15:26;;;;;;;3.57;2.27;;;1.20;99.90;;;1.07;67.12;100991.19;4979838;28;20208;-77
2023/02/27 05:18:03;;;;;;;5.13;2.63;;;1.20;99.90;;;1.09;67.15;100998.06;4979377;28;20295;-74
2023/02/27 05:20:41;;;;;;;2.90;2.03;;;1.30;99.90;;;1.11;66.68;101005.78;4971768;28;20204;-78
2023/02/27 05:23:16;;;;;;;3.17;2.17;;;1.30;99.90;;;1.10;67.20;100998.94;4977198;28;20212;-79
2023/02/27 05:25:53;;;;;;;3.50;2.47;;;1.20;99.90;;;1.08;66.54;101005.63;4977527;28;20212;-78
2023/02/27 05:28:30;;;;;;;2.83;2.50;;;1.30;99.90;;;1.07;67.15;101020.00;4974256;28;20259;-78
2023/02/27 05:31:07;;;;;;;4.77;2.90;;;1.30;99.90;;;1.02;67.53;101018.06;4978248;28;20200;-79
2023/02/27 05:33:44;;;;;;;4.57;2.53;;;1.20;99.90;;;1.00;67.72;101022.22;4982874;28;20915;-80
2023/02/27 05:36:21;;;;;;;2.93;2.23;;;1.20;99.90;;;0.96;67.26;101022.06;4980247;28;20264;-79
2023/02/27 05:38:56;;;;;;;2.50;2.30;;;1.20;99.90;;;0.90;66.57;101024.34;4978999;28;20203;-83
2023/02/27 05:41:30;;;;;;;2.27;1.90;;;1.10;99.90;;;0.85;66.33;101030.91;4981872;28;20618;-80
2023/02/27 05:44:05;;;;;;;1.87;1.50;;;1.10;99.90;;;0.78;65.54;101025.50;4983329;28;20278;-80
2023/02/27 05:46:41;;;;;;;1.40;1.23;;;1.00;99.90;;;0.72;64.70;101037.09;4980743;28;20204;-80
2023/02/27 05:49:16;;;;;;;3.57;1.83;;;1.00;99.90;;;0.72;64.08;101036.22;4973638;28;20238;-77
2023/02/27 05:51:50;;;;;;;2.53;1.40;;;0.90;99.90;;;0.72;63.24;101038.75;4981353;28;20656;-80
2023/02/27 05:54:32;;;;;;;0.90;0.87;;;0.90;99.90;;;0.68;61.76;101039.44;4971629;28;20216;-81
2023/02/27 05:57:04;;;;;;;1.13;0.77;;;0.90;99.90;;;0.65;60.71;101055.38;4985495;28;20212;-81
2023/02/27 05:59:42;;;;;;;3.13;0.90;;;0.80;99.90;;;0.60;60.30;101051.78;4970302;28;20232;-80
2023/02/27 06:02:11;;;;;;;2.10;1.10;;;0.80;99.90;;;0.56;59.71;101054.97;4984601;28;20260;-72
2023/02/27 06:04:45;;;;;;;1.03;0.73;;;0.80;99.90;;;0.52;58.98;101052.25;4996419;28;20219;-80
2023/02/27 06:07:15;;;;;;;4.13;1.00;;;0.70;99.90;;;0.47;58.50;101054.53;4987125;28;20236;-74
2023/02/27 06:09:46;;;;;;;3.17;0.80;;;0.70;99.90;;;0.41;57.68;101054.28;4995788;28;20217;-74
2023/02/27 06:12:14;;;;;;;1.57;0.80;;;0.60;99.90;;;0.36;57.15;101061.66;4977687;28;20209;-77
2023/02/27 06:14:46;;;;;;;1.00;0.67;;;0.60;99.90;;;0.36;56.77;101066.72;5465011;23;20280;-74
2023/02/27 06:17:18;;;;;;;2.50;1.03;;;0.70;99.90;;;0.35;56.51;101054.00;4956045;28;20194;-74
2023/02/27 06:19:49;;;;;;;1.43;0.77;;;0.60;99.90;;;0.37;56.39;101067.59;4966438;28;20228;-76
2023/02/27 06:22:17;;;;;;;1.70;0.83;;;0.60;99.90;;;0.37;56.53;101063.41;4977460;28;20192;-76
2023/02/27 06:24:46;;;;;;;1.30;0.80;;;0.60;99.90;;;0.37;56.04;101058.34;4974815;28;20267;-80
2023/02/27 06:27:29;;;;;;;2.20;0.70;;;0.70;99.90;;;0.41;56.58;101055.16;5322075;23;20269;31
2023/02/27 06:32:39;;;;;;;2.57;1.20;;;0.70;99.90;;;0.56;56.69;101071.88;5101615;23;20240;-72
2023/02/27 06:35:11;;;;;;;2.87;1.10;;;0.80;99.90;;;0.63;56.34;101077.28;4967609;28;20218;-74
2023/02/27 06:37:39;;;;;;;3.03;0.97;;;0.90;99.90;;;0.64;55.64;101079.00;4958349;28;20225;-73
2023/02/27 06:40:11;;;;;;;1.00;0.53;;;0.90;99.90;;;0.63;55.38;101086.56;4954226;28;20221;-73
2023/02/27 06:42:40;;;;;;;0.80;0.60;;;0.90;99.90;;;0.55;53.92;101087.84;4949438;28;20205;-75
2023/02/27 06:45:12;;;;;;;1.90;0.77;;;0.80;99.90;;;0.51;52.96;101088.50;4956283;28;20229;-77
2023/02/27 06:47:42;;;;;;;0.80;0.80;;;0.80;99.90;;;0.51;52.70;101096.97;4958957;28;20280;-81
2023/02/27 06:50:14;;;;;;;2.30;1.10;;;0.80;99.90;;;0.56;52.41;101094.69;4959165;28;20272;-74
2023/02/27 06:52:42;;;;;;;1.30;0.87;;;0.80;99.90;;;0.64;52.16;101103.50;4961483;28;20197;-73
2023/02/27 06:55:12;;;;;;;1.00;0.90;;;0.90;99.90;;;0.67;52.27;101099.44;4967064;28;20264;-79
2023/02/27 06:57:41;;;;;;;1.27;0.80;;;1.00;99.90;;;0.74;52.15;101100.59;4966094;28;20618;-75
2023/02/27 07:00:12;;;;;;;1.63;0.70;;;1.00;99.90;;;0.80;52.05;101118.59;4942883;28;20264;-80
2023/02/27 07:02:41;;;;;;;1.10;0.97;;;1.10;99.90;;;0.84;51.78;101115.41;4953794;29;20208;-79
2023/02/27 07:05:14;;;;;;;1.97;0.80;;;1.10;99.90;;;0.85;52.18;101117.16;4962948;28;20246;-77
2023/02/27 07:07:43;;;;;;;1.00;0.80;;;1.10;99.90;;;0.89;52.13;101116.50;4968509;28;20284;-76
2023/02/27 07:10:14;;;;;;;1.57;0.90;;;1.20;99.90;;;0.98;51.98;101120.22;4953270;28;20678;-76
2023/02/27 07:12:42;;;;;;;2.47;0.80;;;1.30;99.90;;;1.09;51.66;101117.34;4964666;28;20273;-75
2023/02/27 07:15:12;;;;;;;2.43;0.83;;;1.40;99.90;;;1.28;51.25;101126.63;4977284;28;20205;-76
2023/02/27 07:17:41;;;;;;;0.90;0.77;;;1.60;99.90;;;1.61;50.58;101126.34;4975921;28;20201;-74
2023/02/27 07:20:12;;;;;;;1.17;0.90;;;1.90;99.90;;;2.04;49.53;101128.13;4987244;28;20256;-73
2023/02/27 07:22:43;;;;;;;1.43;1.10;;;2.40;99.90;;;2.48;48.85;101123.91;4994514;28;20200;-74
2023/02/27 07:25:12;;;;;;;3.83;0.83;;;2.80;99.90;;;2.90;47.89;101122.97;4977571;28;20224;-79
2023/02/27 07:27:43;;;;;;;2.07;1.37;;;3.30;99.90;;;3.02;46.31;101121.66;4980043;28;20293;-75
2023/02/27 07:30:13;;;;;;;0.93;0.70;;;3.30;99.90;;;3.01;45.82;101127.59;4947763;29;20260;-77
2023/02/27 07:32:42;;;;;;;1.27;0.97;;;3.30;98.20;;;2.96;44.88;101126.56;4936259;29;20234;-75
2023/02/27 07:35:13;;;;;;;2.33;0.73;;;3.30;97.30;;;2.90;45.08;101122.97;4936953;29;20210;-73
2023/02/27 07:37:42;;;;;;;1.27;0.70;;;3.30;97.10;;;2.92;45.99;101122.19;4941321;29;20273;-74
2023/02/27 07:40:13;;;;;;;2.80;1.27;;;3.30;96.80;;;2.98;44.54;101127.47;4938485;29;20241;-70
2023/02/27 07:42:42;;;;;;;2.37;0.73;;;3.30;96.00;;;3.05;45.06;101125.19;4941389;29;20214;-76
2023/02/27 07:45:13;;;;;;;1.40;0.90;;;3.50;96.10;;;3.38;44.92;101120.44;4941098;29;20234;-73
2023/02/27 07:47:42;;;;;;;1.60;0.80;;;3.70;95.50;;;3.62;43.64;101122.09;4941063;29;20297;-73
2023/02/27 07:50:15;;;;;;;1.10;0.87;;;4.00;94.10;;;3.68;43.15;101122.28;4942539;29;20234;-74
2023/02/27 07:52:45;;;;;;;2.73;0.97;;;4.00;93.60;;;3.71;43.83;101122.41;4940533;29;20202;-75
2023/02/27 07:55:15;;;;;;;2.27;1.50;;;4.10;92.80;;;3.74;43.53;101124.19;4946602;29;20221;-79
2023/02/27 07:57:45;;;;;;;2.70;1.43;;;4.00;92.60;;;3.78;42.90;101129.44;4942503;29;20280;-71
2023/02/27 08:00:15;;;;;;;2.50;1.00;;;4.10;91.80;;;3.81;42.39;101124.44;4929269;29;20202;-70
2023/02/27 08:02:44;;;;;;;2.43;1.00;;;4.10;90.70;;;3.83;41.86;101129.63;4933802;29;20755;-68
2023/02/27 08:05:14;;;;;;;2.00;0.90;;;4.10;90.70;;;3.85;41.81;101126.28;4938473;29;20224;-70
2023/02/27 08:07:45;;;;;;;1.77;1.03;;;4.20;89.60;;;3.91;41.94;101130.72;4935312;29;20671;-70
2023/02/27 08:10:15;;;;;;;1.40;0.80;;;4.20;89.00;;;3.98;40.81;101126.69;4935416;29;20330;-70
2023/02/27 08:12:44;;;;;;;2.37;1.23;;;4.30;88.20;;;4.09;41.09;101126.22;4935989;29;20272;-69
2023/02/27 08:15:13;;;;;;;2.90;1.20;;;4.40;88.30;;;4.23;41.07;101126.63;4932396;29;20613;-69
2023/02/27 08:17:42;;;;;;;0.70;0.60;;;4.50;87.10;;;4.39;40.29;101132.25;4932578;29;20210;-76
2023/02/27 08:20:13;;;;;;;1.53;1.00;;;4.70;85.60;;;4.49;39.72;101139.34;4945435;29;20253;-75
2023/02/27 08:22:42;;;;;;;0.80;0.80;;;4.80;84.20;;;4.67;39.81;101146.69;4933899;29;20206;-76
2023/02/27 08:25:11;;;;;;;1.00;0.90;;;4.90;84.10;;;4.76;39.84;101145.28;4938280;29;20217;-76
2023/02/27 08:27:40;;;;;;;3.03;0.63;;;5.10;82.80;;;4.84;38.85;101141.28;4934305;29;20215;-69
2023/02/27 08:30:12;;;;;;;0.87;0.70;;;5.20;81.00;;;4.93;38.46;101144.91;4938098;29;20233;-71
2023/02/27 08:32:41;;;;;;;1.00;0.80;;;5.30;79.30;;;5.04;37.94;101148.63;4935985;29;20329;-70
2023/02/27 08:35:11;;;;;;;1.10;0.70;;;5.40;78.00;;;5.19;37.46;101154.22;4937048;29;20221;-67
2023/02/27 08:37:41;;;;;;;1.00;0.60;;;5.50;76.10;;;5.18;36.64;101157.56;4949857;29;20209;-71
2023/02/27 08:40:11;;;;;;;1.47;0.80;;;5.50;74.30;;;5.11;36.61;101149.69;4941723;29;20631;-70
2023/02/27 08:42:40;;;;;;;1.03;0.70;;;5.50;73.50;;;5.05;36.24;101161.47;4937181;29;20246;-71
2023/02/27 08:45:10;;;;;;;1.90;1.00;;;5.40;72.30;;;5.08;36.01;101159.00;4939057;29;20592;-71
2023/02/27 08:47:38;;;;;;;0.80;0.60;;;5.50;71.40;;;5.13;36.21;101166.78;4945907;29;20329;-72
2023/02/27 08:50:09;;;;;;;1.33;0.70;;;5.60;71.50;;;5.18;36.00;101169.47;4939320;29;20281;-71
2023/02/27 08:52:38;;;;;;;1.47;0.90;;;5.60;71.50;;;5.15;35.31;101167.69;4936793;29;20228;-74
2023/02/27 08:55:10;;;;;;;1.93;0.90;;;5.50;70.20;;;5.19;35.74;101172.09;4934697;29;20273;-72
2023/02/27 08:57:39;;;;;;;1.53;0.90;;;5.60;70.10;;;5.26;35.23;101170.56;4947280;29;20563;-72
2023/02/27 09:00:13;;;;;;;0.80;0.67;;;5.70;70.70;;;5.25;35.08;101168.81;4942091;29;20637;-70
2023/02/27 09:02:42;;;;;;;1.57;1.07;;;5.60;69.30;;;5.22;35.73;101184.94;4926429;29;20201;-73
2023/02/27 09:05:10;;;;;;;0.83;0.50;;;5.60;69.90;;;5.26;35.16;101184.19;4929096;29;20300;-74
2023/02/27 09:07:39;;;;;;;1.67;0.70;;;5.60;68.60;;;5.49;34.99;101187.41;4938947;29;20216;-73
2023/02/27 09:10:16;;;;;;;2.83;0.77;;;5.90;67.80;;;5.89;37.33;101196.16;4951255;29;20269;-72
2023/02/27 09:12:45;;;;;;;1.03;0.60;;;6.30;70.50;;;6.71;34.70;101193.88;4942598;29;21858;-72
2023/02/27 09:15:16;;;;;;;0.77;0.77;;;6.90;67.50;;;6.92;32.15;101194.38;4939168;29;20758;-72
2023/02/27 09:17:46;;;;;;;1.50;0.93;;;6.90;64.30;;;6.68;32.25;101197.25;4950841;29;20209;-74
2023/02/27 09:20:16;;;;;;;1.57;0.90;;;6.70;64.00;;;6.35;32.62;101202.44;4928143;29;20263;-74
2023/02/27 09:22:44;;;;;;;1.27;0.80;;;6.50;65.40;;;6.13;33.55;101200.19;4932877;29;20214;-73
2023/02/27 09:25:14;;;;;;;1.50;1.10;;;6.30;66.00;;;6.01;34.17;101203.31;4936205;29;20647;-72
2023/02/27 09:27:43;;;;;;;2.90;1.10;;;6.20;66.50;;;5.85;33.60;101214.78;4935214;29;20219;-73
2023/02/27 09:30:13;;;;;;;2.80;0.63;;;6.00;64.80;;;5.54;33.60;101213.09;4930744;29;20234;-70
2023/02/27 09:32:42;;;;;;;0.87;0.60;;;5.70;64.20;;;5.24;34.04;101221.63;4956292;29;20324;-75
2023/02/27 09:35:12;;;;;;;1.50;1.07;;;5.50;64.90;;;4.97;34.64;101233.56;4944796;29;20218;-76
2023/02/27 09:37:41;;;;;;;2.40;1.10;;;5.20;66.40;;;4.74;36.06;101230.31;4949764;29;20218;-76
2023/02/27 09:40:20;;;;;;;1.43;1.00;;;5.00;68.30;;;4.51;37.32;101227.03;4954793;28;20201;-78
2023/02/27 09:42:49;;;;;;;2.10;1.07;;;4.80;70.10;;;4.23;38.26;101230.38;4961600;29;20205;-76
2023/02/27 09:45:24;;;;;;;1.33;1.00;;;4.50;71.50;;;4.00;38.96;101237.25;4961166;29;20210;-76
2023/02/27 09:47:56;;;;;;;1.50;1.20;;;4.30;73.10;;;3.82;39.17;101235.78;4966173;29;20205;-77
2023/02/27 09:50:36;;;;;;;3.03;1.13;;;4.10;73.50;;;3.72;39.69;101241.41;4953344;29;20209;-76
2023/02/27 09:53:12;;;;;;;1.13;1.03;;;4.00;74.20;;;3.82;40.05;101237.47;4948135;29;20647;-74
2023/02/27 09:55:44;;;;;;;2.57;1.50;;;4.10;75.90;;;4.38;40.90;101240.22;4951096;29;20209;-75
2023/02/27 09:58:40;;;;;;;4.50;0.90;;;4.60;77.60;;;5.02;38.98;101240.56;4953120;29;20244;-76
2023/02/27 10:01:16;;;;;;;1.07;0.80;;;5.20;75.90;;;5.14;37.50;101246.84;4943447;29;20210;-77
2023/02/27 10:04:13;;;;;;;2.23;1.17;;;5.30;72.40;;;4.98;36.89;101251.50;4942032;29;20209;-76
2023/02/27 10:06:48;;;;;;;1.50;0.90;;;5.20;70.70;;;4.68;36.44;101250.56;4945306;29;20209;-76
2023/02/27 10:09:35;;;;;;;1.47;0.83;;;5.00;69.80;;;4.43;36.92;101257.41;4943827;29;20217;-75
2023/02/27 10:12:29;;;;;;;1.90;0.80;;;4.80;69.40;;;4.16;36.82;101259.94;4948374;29;20257;-76
2023/02/27 10:15:05;;;;;;;4.23;2.93;;;4.50;70.10;;;4.02;37.75;101267.09;4943509;29;20229;-79
2023/02/27 10:17:39;;;;;;;1.17;0.90;;;4.30;70.40;;;3.86;37.92;101263.13;4945145;29;20204;-82
2023/02/27 10:20:17;;;;;;;1.20;1.10;;;4.20;71.60;;;3.62;38.53;101265.69;4950510;29;20233;-80
2023/02/27 10:22:48;;;;;;;1.90;1.23;;;3.90;72.30;;;3.36;39.69;101269.81;4947835;29;20284;-79
2023/02/27 10:25:19;;;;;;;1.30;1.10;;;3.70;73.40;;;3.29;39.97;101264.44;4940517;29;20201;-80
2023/02/27 10:28:11;;;;;;;2.97;1.20;;;3.70;73.80;;;3.29;39.46;101270.41;4946859;29;20241;-77
2023/02/27 10:30:41;;;;;;;1.50;1.27;;;3.70;73.90;;;3.24;39.64;101260.84;4936937;29;20573;-81
2023/02/27 10:33:20;;;;;;;1.80;1.00;;;3.60;73.60;;;3.17;39.80;101264.84;4943508;29;20627;-78
2023/02/27 10:35:50;;;;;;;1.00;0.90;;;3.50;73.20;;;3.10;40.17;101273.06;4938118;29;20702;-81
2023/02/27 10:38:33;;;;;;;1.17;0.80;;;3.40;74.40;;;3.04;40.43;101273.69;4935315;29;20218;-73
2023/02/27 10:41:03;;;;;;;2.00;1.20;;;3.40;74.40;;;3.10;40.47;101283.25;4936391;29;20206;-73
2023/02/27 10:43:34;;;;;;;1.77;1.30;;;3.40;74.80;;;3.08;40.62;101284.88;4938500;29;20210;-73
2023/02/27 10:46:10;;;;;;;1.43;1.23;;;3.40;74.40;;;3.01;40.39;101285.44;4945589;29;20224;-72
2023/02/27 10:48:39;;;;;;;3.90;1.07;;;3.30;74.30;;;2.93;40.19;101277.50;4934677;29;20702;-71
2023/02/27 10:51:31;;;;;;;1.07;0.97;;;3.30;75.10;;;2.91;40.57;101276.59;4939866;29;20221;-74
2023/02/27 10:54:22;;;;;;;1.47;1.20;;;3.20;75.40;;;2.88;40.80;101281.56;4932728;29;20301;-72
2023/02/27 10:56:56;;;;;;;3.33;1.23;;;3.20;75.30;;;2.84;40.45;101283.09;4931087;29;20622;-71
2023/02/27 10:59:31;;;;;;;1.50;1.20;;;3.20;75.00;;;2.83;40.25;101278.81;4946708;29;20214;-72